createdAt,value
2022-10-01T00:00:51.854Z,101097.44
2022-10-01T00:03:18.968Z,101102.91
2022-10-01T00:05:45.970Z,101107.63
2022-10-01T00:08:16.649Z,101094.81
2022-10-01T00:10:44.089Z,101097.63
2022-10-01T00:13:11.349Z,101099.72
2022-10-01T00:15:41.327Z,101092.44
2022-10-01T00:18:10.352Z,101094.66
2022-10-01T00:20:43.480Z,101104.16
2022-10-01T00:23:13.511Z,101096.56
2022-10-01T00:25:40.950Z,101095.84
2022-10-01T00:28:08.248Z,101095.34
2022-10-01T00:30:40.175Z,101095.44
2022-10-01T00:33:07.229Z,101095.34
2022-10-01T00:35:34.101Z,101091.19
2022-10-01T00:38:00.933Z,101094.63
2022-10-01T00:40:27.790Z,101088.69
2022-10-01T00:42:57.389Z,101085.25
2022-10-01T00:45:24.291Z,101087.16
2022-10-01T00:47:58.293Z,101085.59
2022-10-01T00:50:31.895Z,101090.94
2022-10-01T00:53:00.854Z,101081.78
2022-10-01T00:55:31.030Z,101082.59
2022-10-01T00:57:57.870Z,101075.13
2022-10-01T01:00:25.252Z,101082.59
2022-10-01T01:02:52.128Z,101074.63
2022-10-01T01:05:19.389Z,101083.72
2022-10-01T01:07:48.129Z,101065.13
2022-10-01T01:10:17.090Z,101066.06
2022-10-01T01:12:49.743Z,101084.47
2022-10-01T01:15:26.009Z,101063.59
2022-10-01T01:17:56.269Z,101071.81
2022-10-01T01:20:36.469Z,101076.63
2022-10-01T01:23:10.934Z,101075.47
2022-10-01T01:26:03.550Z,101071.97
2022-10-01T01:28:35.094Z,101073.75
2022-10-01T01:31:05.809Z,101075.41
2022-10-01T01:33:33.171Z,101064.91
2022-10-01T01:36:04.674Z,101071.69
2022-10-01T01:38:34.570Z,101062.66
2022-10-01T01:41:02.031Z,101075.31
2022-10-01T01:43:31.466Z,101072.22
2022-10-01T01:45:58.568Z,101062.44
2022-10-01T01:48:25.448Z,101075.31
2022-10-01T01:51:00.856Z,101073.03
2022-10-01T01:53:30.292Z,101058.38
2022-10-01T01:55:58.011Z,101073.66
2022-10-01T01:58:26.290Z,101062.13
2022-10-01T02:00:53.294Z,101066.50
2022-10-01T02:03:22.171Z,101058.16
2022-10-01T02:06:18.371Z,101060.16
2022-10-01T02:09:05.469Z,101069.00
2022-10-01T02:11:39.212Z,101062.44
2022-10-01T02:14:14.989Z,101059.84
2022-10-01T02:17:01.631Z,101051.41
2022-10-01T02:19:46.796Z,101055.88
2022-10-01T02:22:18.450Z,101050.28
2022-10-01T02:24:57.012Z,101053.78
2022-10-01T02:27:32.551Z,101054.94
2022-10-01T02:30:01.508Z,101050.13
2022-10-01T02:32:28.891Z,101055.44
2022-10-01T02:34:55.836Z,101054.19
2022-10-01T02:37:23.650Z,101054.28
2022-10-01T02:39:50.913Z,101041.16
2022-10-01T02:42:17.870Z,101051.28
2022-10-01T02:44:45.390Z,101034.63
2022-10-01T02:47:20.748Z,101043.69
2022-10-01T02:49:48.111Z,101047.38
2022-10-01T02:52:35.230Z,101047.59
2022-10-01T02:55:05.672Z,101046.13
2022-10-01T02:57:32.990Z,101029.59
2022-10-01T03:00:01.189Z,101038.00
2022-10-01T03:02:29.145Z,101039.66
2022-10-01T03:04:58.670Z,101035.41
2022-10-01T03:07:30.230Z,101022.94
2022-10-01T03:09:57.230Z,101028.47
2022-10-01T03:12:24.133Z,101009.34
2022-10-01T03:14:51.174Z,101025.78
2022-10-01T03:17:18.076Z,101026.50
2022-10-01T03:19:45.083Z,101020.59
2022-10-01T03:22:13.551Z,101027.00
2022-10-01T03:24:40.414Z,101017.63
2022-10-01T03:27:07.270Z,101016.38
2022-10-01T03:29:34.176Z,101017.19
2022-10-01T03:32:01.230Z,101014.09
2022-10-01T03:34:28.170Z,101016.38
2022-10-01T03:36:55.092Z,101018.97
2022-10-01T03:39:21.893Z,101022.31
2022-10-01T03:41:48.832Z,101016.19
2022-10-01T03:44:15.628Z,101007.25
2022-10-01T03:46:42.411Z,101016.47
2022-10-01T03:49:09.236Z,101020.28
2022-10-01T03:51:37.667Z,101009.38
2022-10-01T03:54:05.369Z,101016.44
2022-10-01T03:56:32.190Z,100987.63
2022-10-01T03:58:58.992Z,100993.31
2022-10-01T04:01:26.323Z,101002.38
2022-10-01T04:03:53.168Z,101002.78
2022-10-01T04:06:20.174Z,101007.34
2022-10-01T04:08:47.037Z,100995.47
2022-10-01T04:11:13.851Z,100995.69
2022-10-01T04:13:40.591Z,101007.81
2022-10-01T04:16:07.523Z,100998.75
2022-10-01T04:18:34.455Z,101002.84
2022-10-01T04:21:01.350Z,100974.91
2022-10-01T04:23:28.208Z,100996.06
2022-10-01T04:25:55.090Z,100999.56
2022-10-01T04:28:22.005Z,101005.63
2022-10-01T04:30:48.932Z,101002.38
2022-10-01T04:33:16.654Z,101000.63
2022-10-01T04:35:43.812Z,100992.56
2022-10-01T04:38:14.207Z,100999.41
2022-10-01T04:40:41.452Z,101013.00
2022-10-01T04:43:10.969Z,100996.09
2022-10-01T04:45:38.036Z,101012.19
2022-10-01T04:48:05.329Z,101013.00
2022-10-01T04:50:32.258Z,101009.53
2022-10-01T04:52:59.174Z,101007.75
2022-10-01T04:55:26.069Z,101000.25
2022-10-01T04:57:53.008Z,101002.66
2022-10-01T05:00:22.002Z,101012.63
2022-10-01T05:02:49.470Z,100998.41
2022-10-01T05:05:17.051Z,101007.16
2022-10-01T05:07:43.916Z,101011.03
2022-10-01T05:10:12.734Z,101014.25
2022-10-01T05:12:39.531Z,101008.06
2022-10-01T05:15:07.269Z,101008.38
2022-10-01T05:17:34.548Z,101002.09
2022-10-01T05:20:02.129Z,101009.38
2022-10-01T05:22:28.932Z,100965.94
2022-10-01T05:24:55.772Z,101009.53
2022-10-01T05:27:22.631Z,101001.25
2022-10-01T05:29:49.470Z,101000.03
2022-10-01T05:32:16.648Z,100982.28
2022-10-01T05:34:43.474Z,100986.03
2022-10-01T05:37:12.092Z,100988.00
2022-10-01T05:39:38.950Z,100994.75
2022-10-01T05:42:06.651Z,100991.75
2022-10-01T05:44:38.032Z,100991.56
2022-10-01T05:47:06.568Z,100993.09
2022-10-01T05:49:33.594Z,100988.69
2022-10-01T05:52:01.175Z,100958.97
2022-10-01T05:54:29.611Z,100984.09
2022-10-01T05:56:57.154Z,100955.34
2022-10-01T05:59:28.435Z,100975.41
2022-10-01T06:01:58.108Z,100954.09
2022-10-01T06:04:25.231Z,100977.78
2022-10-01T06:06:53.607Z,100966.88
2022-10-01T06:09:20.572Z,100968.84
2022-10-01T06:11:49.000Z,100972.75
2022-10-01T06:14:16.335Z,100966.19
2022-10-01T06:16:43.265Z,100942.66
2022-10-01T06:19:10.270Z,100954.75
2022-10-01T06:21:37.781Z,100948.34
2022-10-01T06:24:05.350Z,100952.25
2022-10-01T06:26:32.227Z,100936.44
2022-10-01T06:28:59.111Z,100943.75
2022-10-01T06:31:25.923Z,100924.00
2022-10-01T06:33:52.756Z,100933.59
2022-10-01T06:36:19.634Z,100932.09
2022-10-01T06:38:49.650Z,100924.81
2022-10-01T06:41:16.508Z,100925.41
2022-10-01T06:43:43.324Z,100929.91
2022-10-01T06:46:10.657Z,100922.00
2022-10-01T06:48:37.551Z,100922.66
2022-10-01T06:51:04.612Z,100931.19
2022-10-01T06:53:32.320Z,100923.72
2022-10-01T06:56:04.749Z,100915.63
2022-10-01T06:58:31.734Z,100910.59
2022-10-01T07:01:02.367Z,100901.00
2022-10-01T07:03:29.474Z,100898.63
2022-10-01T07:06:01.274Z,100880.22
2022-10-01T07:08:28.169Z,100885.75
2022-10-01T07:11:00.469Z,100887.63
2022-10-01T07:13:27.311Z,100877.34
2022-10-01T07:15:54.211Z,100877.16
2022-10-01T07:18:21.098Z,100869.75
2022-10-01T07:20:48.036Z,100871.00
2022-10-01T07:23:15.470Z,100873.00
2022-10-01T07:25:42.617Z,100833.13
2022-10-01T07:28:16.831Z,100868.28
2022-10-01T07:30:48.356Z,100859.94
2022-10-01T07:33:18.350Z,100836.59
2022-10-01T07:35:47.908Z,100857.72
2022-10-01T07:38:15.012Z,100853.94
2022-10-01T07:40:42.032Z,100836.38
2022-10-01T07:43:08.990Z,100841.19
2022-10-01T07:45:35.935Z,100832.41
2022-10-01T07:48:03.172Z,100830.03
2022-10-01T07:50:33.234Z,100824.78
2022-10-01T07:53:00.173Z,100824.72
2022-10-01T07:55:28.000Z,100819.38
2022-10-01T07:57:55.610Z,100818.16
2022-10-01T08:00:23.450Z,100814.91
2022-10-01T08:02:51.403Z,100819.72
2022-10-01T08:05:22.572Z,100820.84
2022-10-01T08:07:49.711Z,100820.78
2022-10-01T08:10:17.931Z,100821.09
2022-10-01T08:12:45.007Z,100808.50
2022-10-01T08:15:15.953Z,100809.78
2022-10-01T08:17:42.948Z,100772.28
2022-10-01T08:20:11.928Z,100787.94
2022-10-01T08:22:42.150Z,100781.19
2022-10-01T08:25:09.593Z,100786.31
2022-10-01T08:27:36.514Z,100778.16
2022-10-01T08:30:03.651Z,100783.72
2022-10-01T08:32:31.305Z,100777.00
2022-10-01T08:35:00.093Z,100757.22
2022-10-01T08:37:30.128Z,100745.72
2022-10-01T08:39:57.173Z,100776.31
2022-10-01T08:42:44.854Z,100776.31
2022-10-01T08:45:17.652Z,100769.06
2022-10-01T08:47:49.483Z,100757.50
2022-10-01T08:50:42.470Z,100768.31
2022-10-01T08:53:15.355Z,100749.56
2022-10-01T08:55:42.273Z,100754.28
2022-10-01T08:58:11.513Z,100752.16
2022-10-01T09:00:40.977Z,100757.03
2022-10-01T09:03:11.107Z,100744.44
2022-10-01T09:06:10.393Z,100744.34
2022-10-01T09:09:02.229Z,100739.53
2022-10-01T09:11:47.252Z,100733.69
2022-10-01T09:14:29.135Z,100720.41
2022-10-01T09:17:13.132Z,100715.34
2022-10-01T09:19:54.406Z,100711.56
2022-10-01T09:22:58.970Z,100715.28
2022-10-01T09:25:27.264Z,100708.34
2022-10-01T09:28:02.968Z,100698.16
2022-10-01T09:30:29.892Z,100693.09
2022-10-01T09:33:01.267Z,100694.78
2022-10-01T09:35:50.374Z,100691.44
2022-10-01T09:38:37.530Z,100677.97
2022-10-01T09:41:04.733Z,100682.19
2022-10-01T09:43:33.011Z,100678.47
2022-10-01T09:45:59.945Z,100682.44
2022-10-01T09:48:34.154Z,100681.69
2022-10-01T09:51:10.492Z,100663.97
2022-10-01T09:53:44.149Z,100673.56
2022-10-01T09:56:17.128Z,100671.31
2022-10-01T09:58:47.812Z,100662.91
2022-10-01T10:01:24.009Z,100653.97
2022-10-01T10:03:55.721Z,100658.06
2022-10-01T10:06:27.388Z,100652.28
2022-10-01T10:08:55.812Z,100644.72
2022-10-01T10:11:28.328Z,100642.75
2022-10-01T10:14:03.645Z,100627.59
2022-10-01T10:16:33.866Z,100623.69
2022-10-01T10:19:11.809Z,100632.84
2022-10-01T10:21:38.810Z,100631.31
2022-10-01T10:24:18.778Z,100624.94
2022-10-01T10:26:52.485Z,100629.63
2022-10-01T10:29:27.616Z,100626.97
2022-10-01T10:31:55.673Z,100635.41
2022-10-01T10:34:41.056Z,100621.81
2022-10-01T10:37:19.271Z,100623.91
2022-10-01T10:39:48.070Z,100613.84
2022-10-01T10:42:15.832Z,100598.97
2022-10-01T10:44:43.730Z,100598.03
2022-10-01T10:47:14.939Z,100573.69
2022-10-01T10:50:01.923Z,100598.19
2022-10-01T10:52:33.489Z,100594.03
2022-10-01T10:55:01.616Z,100586.13
2022-10-01T10:57:33.590Z,100586.84
2022-10-01T11:00:24.071Z,100584.34
2022-10-01T11:03:00.470Z,100583.16
2022-10-01T11:05:32.510Z,100563.13
2022-10-01T11:08:06.792Z,100577.88
2022-10-01T11:11:02.312Z,100573.44
2022-10-01T11:13:58.489Z,100570.75
2022-10-01T11:17:05.032Z,100560.84
2022-10-01T11:19:56.350Z,100555.84
2022-10-01T11:23:01.132Z,100551.19
2022-10-01T11:25:41.538Z,100537.66
2022-10-01T11:28:37.435Z,100543.31
2022-10-01T11:31:27.494Z,100540.13
2022-10-01T11:33:59.933Z,100538.38
2022-10-01T11:36:41.399Z,100529.91
2022-10-01T11:39:16.792Z,100527.63
2022-10-01T11:41:51.261Z,100515.25
2022-10-01T11:44:22.200Z,100519.97
2022-10-01T11:47:08.912Z,100523.53
2022-10-01T11:50:06.311Z,100528.19
2022-10-01T11:52:33.975Z,100517.09
2022-10-01T11:55:43.470Z,100520.16
2022-10-01T11:58:52.352Z,100516.00
2022-10-01T12:01:32.913Z,100504.72
2022-10-01T12:04:12.433Z,100516.81
2022-10-01T12:06:54.671Z,100497.34
2022-10-01T12:09:39.535Z,100508.63
2022-10-01T12:12:09.010Z,100495.25
2022-10-01T12:14:54.591Z,100501.97
2022-10-01T12:17:26.294Z,100494.78
2022-10-01T12:19:55.131Z,100493.00
2022-10-01T12:22:34.771Z,100487.50
2022-10-01T12:25:01.654Z,100493.31
2022-10-01T12:27:48.062Z,100485.84
2022-10-01T12:30:22.721Z,100486.81
2022-10-01T12:33:27.880Z,100475.13
2022-10-01T12:36:19.753Z,100476.88
2022-10-01T12:38:58.531Z,100464.56
2022-10-01T12:41:57.310Z,100461.69
2022-10-01T12:44:45.790Z,100454.53
2022-10-01T12:47:28.569Z,100451.09
2022-10-01T12:50:05.298Z,100440.72
2022-10-01T12:52:37.917Z,100440.22
2022-10-01T12:55:40.713Z,100442.56
2022-10-01T12:58:44.772Z,100445.38
2022-10-01T13:01:34.483Z,100436.66
2022-10-01T13:04:12.852Z,100434.13
2022-10-01T13:07:05.415Z,100438.75
2022-10-01T13:09:53.693Z,100438.09
2022-10-01T13:12:57.831Z,100431.31
2022-10-01T13:15:27.927Z,100415.97
2022-10-01T13:18:05.529Z,100414.69
2022-10-01T13:20:41.260Z,100419.41
2022-10-01T13:23:28.119Z,100416.75
2022-10-01T13:26:29.760Z,100422.47
2022-10-01T13:29:35.171Z,100427.19
2022-10-01T13:32:03.548Z,100415.72
2022-10-01T13:34:43.350Z,100398.84
2022-10-01T13:37:12.374Z,100402.06
2022-10-01T13:39:42.257Z,100397.94
2022-10-01T13:42:25.270Z,100400.44
2022-10-01T13:44:53.911Z,100400.88
2022-10-01T13:47:20.773Z,100405.19
2022-10-01T13:50:27.348Z,100393.66
2022-10-01T13:53:05.431Z,100395.94
2022-10-01T13:55:32.371Z,100397.41
2022-10-01T13:58:06.897Z,100404.03
2022-10-01T14:00:33.813Z,100392.91
2022-10-01T14:03:05.994Z,100398.31
2022-10-01T14:05:36.008Z,100395.16
2022-10-01T14:08:40.453Z,100389.91
2022-10-01T14:11:36.094Z,100387.31
2022-10-01T14:14:28.352Z,100392.25
2022-10-01T14:16:56.209Z,100383.13
2022-10-01T14:19:25.069Z,100377.00
2022-10-01T14:22:10.573Z,100381.75
2022-10-01T14:24:55.852Z,100383.81
2022-10-01T14:27:28.354Z,100376.28
2022-10-01T14:30:18.073Z,100384.06
2022-10-01T14:33:10.609Z,100372.22
2022-10-01T14:35:39.572Z,100362.66
2022-10-01T14:38:22.475Z,100360.19
2022-10-01T14:40:50.333Z,100361.63
2022-10-01T14:43:20.253Z,100363.50
2022-10-01T14:46:06.644Z,100366.38
2022-10-01T14:48:37.956Z,100352.91
2022-10-01T14:51:05.946Z,100366.16
2022-10-01T14:53:34.651Z,100349.41
2022-10-01T14:56:05.694Z,100362.06
2022-10-01T14:58:43.531Z,100329.56
2022-10-01T15:01:20.528Z,100343.78
2022-10-01T15:03:48.099Z,100336.81
2022-10-01T15:06:17.171Z,100353.53
2022-10-01T15:08:45.231Z,100352.66
2022-10-01T15:11:13.773Z,100351.81
2022-10-01T15:13:42.330Z,100352.81
2022-10-01T15:16:14.360Z,100341.97
2022-10-01T15:18:49.031Z,100348.66
2022-10-01T15:21:45.733Z,100341.88
2022-10-01T15:24:33.732Z,100338.97
2022-10-01T15:27:00.792Z,100346.59
2022-10-01T15:29:28.070Z,100326.78
2022-10-01T15:31:56.477Z,100336.94
2022-10-01T15:34:24.229Z,100322.41
2022-10-01T15:36:51.573Z,100335.19
2022-10-01T15:39:37.912Z,100328.81
2022-10-01T15:42:20.574Z,100323.22
2022-10-01T15:44:48.329Z,100326.56
2022-10-01T15:47:21.017Z,100319.97
2022-10-01T15:50:06.672Z,100314.34
2022-10-01T15:53:00.137Z,100313.41
2022-10-01T15:55:27.591Z,100310.50
2022-10-01T15:58:15.771Z,100314.44
2022-10-01T16:00:48.843Z,100308.91
2022-10-01T16:03:19.788Z,100311.66
2022-10-01T16:05:47.588Z,100309.13
2022-10-01T16:08:21.489Z,100301.03
2022-10-01T16:10:49.431Z,100309.31
2022-10-01T16:13:39.109Z,100311.06
2022-10-01T16:16:27.508Z,100310.28
2022-10-01T16:18:59.512Z,100308.56
2022-10-01T16:21:26.539Z,100304.56
2022-10-01T16:23:54.509Z,100299.69
2022-10-01T16:26:27.475Z,100299.16
2022-10-01T16:28:55.093Z,100302.88
2022-10-01T16:31:22.020Z,100300.94
2022-10-01T16:33:48.850Z,100289.00
2022-10-01T16:36:19.953Z,100291.38
2022-10-01T16:38:50.432Z,100285.34
2022-10-01T16:41:22.508Z,100274.69
2022-10-01T16:43:50.333Z,100284.59
2022-10-01T16:46:17.366Z,100272.50
2022-10-01T16:48:48.774Z,100279.94
2022-10-01T16:51:15.593Z,100264.00
2022-10-01T16:53:45.921Z,100255.84
2022-10-01T16:56:13.672Z,100260.44
2022-10-01T16:58:43.194Z,100266.25
2022-10-01T17:01:13.555Z,100263.44
2022-10-01T17:03:40.550Z,100252.91
2022-10-01T17:06:07.412Z,100255.72
2022-10-01T17:08:34.779Z,100251.63
2022-10-01T17:11:02.211Z,100247.50
2022-10-01T17:13:30.492Z,100244.41
2022-10-01T17:15:57.498Z,100245.22
2022-10-01T17:18:24.376Z,100248.41
2022-10-01T17:20:51.272Z,100255.28
2022-10-01T17:23:18.971Z,100245.03
2022-10-01T17:25:45.913Z,100259.13
2022-10-01T17:28:14.507Z,100254.00
2022-10-01T17:30:42.345Z,100240.25
2022-10-01T17:33:10.804Z,100256.16
2022-10-01T17:35:44.041Z,100251.13
2022-10-01T17:38:11.190Z,100259.50
2022-10-01T17:40:41.721Z,100248.69
2022-10-01T17:43:13.870Z,100251.97
2022-10-01T17:45:40.790Z,100244.78
2022-10-01T17:48:07.778Z,100247.56
2022-10-01T17:50:34.614Z,100246.41
2022-10-01T17:53:01.724Z,100254.63
2022-10-01T17:55:28.632Z,100248.41
2022-10-01T17:57:55.489Z,100247.75
2022-10-01T18:00:22.321Z,100245.31
2022-10-01T18:02:49.197Z,100242.47
2022-10-01T18:05:17.318Z,100252.34
2022-10-01T18:07:44.311Z,100242.53
2022-10-01T18:10:12.729Z,100237.44
2022-10-01T18:12:40.010Z,100247.16
2022-10-01T18:15:07.463Z,100231.06
2022-10-01T18:17:36.488Z,100236.81
2022-10-01T18:20:05.241Z,100242.88
2022-10-01T18:22:32.120Z,100237.78
2022-10-01T18:24:58.929Z,100234.00
2022-10-01T18:27:25.837Z,100243.84
2022-10-01T18:29:52.697Z,100240.75
2022-10-01T18:32:24.449Z,100244.84
2022-10-01T18:35:03.601Z,100230.41
2022-10-01T18:37:59.926Z,100246.16
2022-10-01T18:40:32.757Z,100248.63
2022-10-01T18:43:21.119Z,100246.00
2022-10-01T18:46:25.242Z,100244.84
2022-10-01T18:49:02.133Z,100240.75
2022-10-01T18:51:51.001Z,100234.41
2022-10-01T18:54:20.363Z,100231.09
2022-10-01T18:57:17.879Z,100232.44
2022-10-01T19:00:10.999Z,100233.97
2022-10-01T19:02:56.310Z,100229.19
2022-10-01T19:05:29.684Z,100226.88
2022-10-01T19:08:24.579Z,100214.94
2022-10-01T19:11:33.124Z,100223.84
2022-10-01T19:14:34.183Z,100216.28
2022-10-01T19:17:22.666Z,100217.44
2022-10-01T19:20:00.543Z,100199.25
2022-10-01T19:22:47.721Z,100198.13
2022-10-01T19:25:51.719Z,100210.44
2022-10-01T19:28:55.901Z,100211.13
2022-10-01T19:31:34.532Z,100209.66
2022-10-01T19:34:23.444Z,100211.97
2022-10-01T19:36:57.318Z,100218.03
2022-10-01T19:39:25.822Z,100214.44
2022-10-01T19:42:00.762Z,100218.56
2022-10-01T19:44:51.642Z,100222.16
2022-10-01T19:47:46.580Z,100207.72
2022-10-01T19:50:22.222Z,100208.19
2022-10-01T19:52:51.621Z,100219.72
2022-10-01T19:55:20.263Z,100225.97
2022-10-01T19:57:47.500Z,100216.94
2022-10-01T20:00:18.300Z,100225.47
2022-10-01T20:03:00.780Z,100231.88
2022-10-01T20:05:29.416Z,100229.44
2022-10-01T20:08:06.126Z,100233.19
2022-10-01T20:10:54.309Z,100236.81
2022-10-01T20:13:21.519Z,100230.72
2022-10-01T20:16:04.088Z,100230.09
2022-10-01T20:18:52.437Z,100231.09
2022-10-01T20:21:29.861Z,100236.50
2022-10-01T20:24:28.907Z,100233.88
2022-10-01T20:27:20.596Z,100234.69
2022-10-01T20:30:10.625Z,100224.19
2022-10-01T20:32:55.466Z,100226.31
2022-10-01T20:35:45.027Z,100230.13
2022-10-01T20:38:15.383Z,100235.38
2022-10-01T20:40:56.098Z,100227.63
2022-10-01T20:43:30.686Z,100221.91
2022-10-01T20:45:58.331Z,100220.59
2022-10-01T20:48:32.263Z,100214.69
2022-10-01T20:51:09.784Z,100227.66
2022-10-01T20:53:40.945Z,100237.31
2022-10-01T20:56:28.821Z,100235.69
2022-10-01T20:58:59.581Z,100222.38
2022-10-01T21:01:27.249Z,100217.47
2022-10-01T21:04:18.398Z,100228.63
2022-10-01T21:06:52.337Z,100215.84
2022-10-01T21:09:25.359Z,100230.59
2022-10-01T21:12:07.223Z,100226.50
2022-10-01T21:14:41.757Z,100230.91
2022-10-01T21:17:33.316Z,100227.34
2022-10-01T21:20:25.921Z,100226.50
2022-10-01T21:23:26.638Z,100206.66
2022-10-01T21:26:18.099Z,100228.97
2022-10-01T21:29:06.639Z,100233.41
2022-10-01T21:31:55.031Z,100229.97
2022-10-01T21:34:59.298Z,100229.97
2022-10-01T21:37:31.040Z,100228.28
2022-10-01T21:40:27.021Z,100230.09
2022-10-01T21:43:18.294Z,100230.09
2022-10-01T21:45:47.802Z,100237.16
2022-10-01T21:48:33.157Z,100233.56
2022-10-01T21:51:10.600Z,100231.25
2022-10-01T21:53:54.598Z,100233.56
2022-10-01T21:56:40.538Z,100228.00
2022-10-01T21:59:45.818Z,100229.97
2022-10-01T22:02:30.499Z,100229.13
2022-10-01T22:05:02.519Z,100230.44
2022-10-01T22:07:38.239Z,100228.28
2022-10-01T22:10:31.718Z,100240.28
2022-10-01T22:13:00.499Z,100229.81
2022-10-01T22:15:44.136Z,100234.38
2022-10-01T22:18:18.642Z,100239.78
2022-10-01T22:20:45.521Z,100239.13
2022-10-01T22:23:14.918Z,100243.56
2022-10-01T22:25:47.118Z,100231.13
2022-10-01T22:28:18.804Z,100225.53
2022-10-01T22:30:45.901Z,100231.78
2022-10-01T22:33:35.241Z,100232.25
2022-10-01T22:36:20.645Z,100239.50
2022-10-01T22:38:59.238Z,100237.69
2022-10-01T22:41:44.719Z,100244.75
2022-10-01T22:44:15.978Z,100241.25
2022-10-01T22:47:07.659Z,100237.50
2022-10-01T22:49:44.920Z,100246.38
2022-10-01T22:52:24.239Z,100235.38
2022-10-01T22:55:07.876Z,100239.97
2022-10-01T22:58:12.497Z,100244.56
2022-10-01T23:01:08.402Z,100248.00
2022-10-01T23:03:53.637Z,100247.00
2022-10-01T23:06:43.098Z,100234.25
2022-10-01T23:09:20.982Z,100241.75
2022-10-01T23:12:13.402Z,100249.63
2022-10-01T23:14:55.647Z,100232.59
2022-10-01T23:17:45.598Z,100247.38
2022-10-01T23:20:31.057Z,100247.69
2022-10-01T23:23:03.577Z,100242.91
2022-10-01T23:25:48.197Z,100240.78
2022-10-01T23:28:53.981Z,100248.34
2022-10-01T23:31:45.510Z,100245.25
2022-10-01T23:34:25.678Z,100247.88
2022-10-01T23:37:15.143Z,100251.94
2022-10-01T23:40:08.906Z,100242.63
2022-10-01T23:42:55.199Z,100251.63
2022-10-01T23:45:46.231Z,100255.91
2022-10-01T23:48:14.159Z,100245.72
2022-10-01T23:50:51.101Z,100244.88
2022-10-01T23:53:23.237Z,100241.75
2022-10-01T23:56:19.379Z,100242.94
2022-10-01T23:58:50.662Z,100253.09
